< < Back
Terminal Aerodrome Forecast


Current Version              Previous Versions:   1  2  3  4  5  6  7  8  9  

Terminal Aerodrome Forecast

161
FTUS42 KILM 260520
TAFFLO
TAF
KFLO 260520Z 2606/2706 14005KT P6SM SKC
     FM260900 12003KT 3SM BR SCT007 BKN015
     FM261300 17006KT P6SM SCT025 BKN050
     FM261900 15011G15KT P6SM SCT050 BKN100
     FM270000 16007KT P6SM SCT100 SCT250=



Latest METAR

071
SAUS70 KWBC 271000 RRF
MTRFLO
METAR KFLO 270953Z AUTO 21004KT 8SM FEW023 22/21 A3021 RMK AO2 SLP228
T02170206


USA.gov is the U.S. government's official web portal to all federal, state and local government web resources and services.